sensor_id;sensor_type;location;lat;lon;timestamp;temperature;humidity
68189;DHT22;55008;47.514;19.218;2022-11-20T00:01:51;1.34;88.03
68189;DHT22;55008;47.514;19.218;2022-11-20T00:04:20;1.37;88.00
68189;DHT22;55008;47.514;19.218;2022-11-20T00:06:48;1.34;87.60
68189;DHT22;55008;47.514;19.218;2022-11-20T00:09:17;1.36;87.77
68189;DHT22;55008;47.514;19.218;2022-11-20T00:11:46;1.36;88.27
68189;DHT22;55008;47.514;19.218;2022-11-20T00:14:15;1.34;87.83
68189;DHT22;55008;47.514;19.218;2022-11-20T00:16:44;1.31;88.19
68189;DHT22;55008;47.514;19.218;2022-11-20T00:19:16;1.30;87.88
68189;DHT22;55008;47.514;19.218;2022-11-20T00:21:45;1.27;87.84
68189;DHT22;55008;47.514;19.218;2022-11-20T00:24:18;1.29;88.03
68189;DHT22;55008;47.514;19.218;2022-11-20T00:26:46;1.26;88.31
68189;DHT22;55008;47.514;19.218;2022-11-20T00:29:15;1.27;87.72
68189;DHT22;55008;47.514;19.218;2022-11-20T00:31:46;1.24;88.33
68189;DHT22;55008;47.514;19.218;2022-11-20T00:34:16;1.26;88.40
68189;DHT22;55008;47.514;19.218;2022-11-20T00:36:45;1.24;88.40
68189;DHT22;55008;47.514;19.218;2022-11-20T00:39:16;1.23;88.45
68189;DHT22;55008;47.514;19.218;2022-11-20T00:41:45;1.23;88.34
68189;DHT22;55008;47.514;19.218;2022-11-20T00:44:13;1.26;88.79
68189;DHT22;55008;47.514;19.218;2022-11-20T00:46:42;1.26;89.19
68189;DHT22;55008;47.514;19.218;2022-11-20T00:49:10;1.20;88.96
68189;DHT22;55008;47.514;19.218;2022-11-20T00:51:40;1.17;88.87
68189;DHT22;55008;47.514;19.218;2022-11-20T00:54:08;1.13;89.00
68189;DHT22;55008;47.514;19.218;2022-11-20T00:56:36;1.09;89.33
68189;DHT22;55008;47.514;19.218;2022-11-20T00:59:08;1.09;89.74
68189;DHT22;55008;47.514;19.218;2022-11-20T01:01:37;1.06;89.62
68189;DHT22;55008;47.514;19.218;2022-11-20T01:04:05;1.09;89.81
68189;DHT22;55008;47.514;19.218;2022-11-20T01:06:36;1.03;90.33
68189;DHT22;55008;47.514;19.218;2022-11-20T01:09:09;0.99;90.43
68189;DHT22;55008;47.514;19.218;2022-11-20T01:11:41;0.96;90.60
68189;DHT22;55008;47.514;19.218;2022-11-20T01:14:13;0.95;91.13
68189;DHT22;55008;47.514;19.218;2022-11-20T01:16:43;0.91;91.37
68189;DHT22;55008;47.514;19.218;2022-11-20T01:19:16;0.89;91.88
68189;DHT22;55008;47.514;19.218;2022-11-20T01:21:48;0.83;92.43
68189;DHT22;55008;47.514;19.218;2022-11-20T01:24:21;0.85;92.81
68189;DHT22;55008;47.514;19.218;2022-11-20T01:26:51;0.86;93.10
68189;DHT22;55008;47.514;19.218;2022-11-20T01:29:21;0.83;93.47
68189;DHT22;55008;47.514;19.218;2022-11-20T01:31:51;0.86;93.67
68189;DHT22;55008;47.514;19.218;2022-11-20T01:34:20;0.88;93.77
68189;DHT22;55008;47.514;19.218;2022-11-20T01:36:49;0.92;93.79
68189;DHT22;55008;47.514;19.218;2022-11-20T01:39:21;0.89;93.95
68189;DHT22;55008;47.514;19.218;2022-11-20T01:41:53;0.91;94.21
68189;DHT22;55008;47.514;19.218;2022-11-20T01:44:49;0.92;94.50
68189;DHT22;55008;47.514;19.218;2022-11-20T01:47:23;0.89;94.59
68189;DHT22;55008;47.514;19.218;2022-11-20T01:49:55;0.89;94.64
68189;DHT22;55008;47.514;19.218;2022-11-20T01:52:27;0.91;94.86
68189;DHT22;55008;47.514;19.218;2022-11-20T01:55:02;0.93;94.85
68189;DHT22;55008;47.514;19.218;2022-11-20T01:57:31;0.93;94.77
68189;DHT22;55008;47.514;19.218;2022-11-20T02:00:05;0.93;94.91
68189;DHT22;55008;47.514;19.218;2022-11-20T02:02:37;0.96;95.01
68189;DHT22;55008;47.514;19.218;2022-11-20T02:05:14;0.97;94.86
68189;DHT22;55008;47.514;19.218;2022-11-20T02:07:43;0.97;94.74
68189;DHT22;55008;47.514;19.218;2022-11-20T02:10:15;0.99;94.84
68189;DHT22;55008;47.514;19.218;2022-11-20T02:12:44;1.00;94.67
68189;DHT22;55008;47.514;19.218;2022-11-20T02:15:29;1.04;94.69
68189;DHT22;55008;47.514;19.218;2022-11-20T02:17:58;1.03;94.75
68189;DHT22;55008;47.514;19.218;2022-11-20T02:20:27;1.04;94.64
68189;DHT22;55008;47.514;19.218;2022-11-20T02:22:58;1.04;94.64
68189;DHT22;55008;47.514;19.218;2022-11-20T02:25:32;1.07;94.54
68189;DHT22;55008;47.514;19.218;2022-11-20T02:28:05;1.07;94.46
68189;DHT22;55008;47.514;19.218;2022-11-20T02:30:35;1.07;94.67
68189;DHT22;55008;47.514;19.218;2022-11-20T02:33:03;1.06;94.25
68189;DHT22;55008;47.514;19.218;2022-11-20T02:35:43;1.07;94.43
68189;DHT22;55008;47.514;19.218;2022-11-20T02:38:13;1.06;94.54
68189;DHT22;55008;47.514;19.218;2022-11-20T02:40:45;1.09;94.57
68189;DHT22;55008;47.514;19.218;2022-11-20T02:43:21;1.09;94.81
68189;DHT22;55008;47.514;19.218;2022-11-20T02:45:51;1.09;94.72
68189;DHT22;55008;47.514;19.218;2022-11-20T02:48:21;1.13;94.35
68189;DHT22;55008;47.514;19.218;2022-11-20T02:50:51;1.09;94.45
68189;DHT22;55008;47.514;19.218;2022-11-20T02:53:20;1.13;94.45
68189;DHT22;55008;47.514;19.218;2022-11-20T02:55:58;1.13;94.48
68189;DHT22;55008;47.514;19.218;2022-11-20T02:58:26;1.17;94.29
68189;DHT22;55008;47.514;19.218;2022-11-20T03:00:54;1.16;94.36
68189;DHT22;55008;47.514;19.218;2022-11-20T03:03:23;1.15;94.08
68189;DHT22;55008;47.514;19.218;2022-11-20T03:05:51;1.13;94.32
68189;DHT22;55008;47.514;19.218;2022-11-20T03:08:20;1.20;94.02
68189;DHT22;55008;47.514;19.218;2022-11-20T03:10:48;1.20;93.65
68189;DHT22;55008;47.514;19.218;2022-11-20T03:13:19;1.22;93.72
68189;DHT22;55008;47.514;19.218;2022-11-20T03:15:47;1.22;93.30
68189;DHT22;55008;47.514;19.218;2022-11-20T03:18:16;1.20;93.35
68189;DHT22;55008;47.514;19.218;2022-11-20T03:20:44;1.20;93.55
68189;DHT22;55008;47.514;19.218;2022-11-20T03:23:13;1.17;93.82
68189;DHT22;55008;47.514;19.218;2022-11-20T03:25:41;1.16;93.83
68189;DHT22;55008;47.514;19.218;2022-11-20T03:28:09;1.15;95.10
68189;DHT22;55008;47.514;19.218;2022-11-20T03:30:39;1.13;93.77
68189;DHT22;55008;47.514;19.218;2022-11-20T03:33:07;1.17;93.63
68189;DHT22;55008;47.514;19.218;2022-11-20T03:35:36;1.16;94.00
68189;DHT22;55008;47.514;19.218;2022-11-20T03:38:04;1.19;93.91
68189;DHT22;55008;47.514;19.218;2022-11-20T03:40:33;1.15;93.77
68189;DHT22;55008;47.514;19.218;2022-11-20T03:43:02;1.15;93.47
68189;DHT22;55008;47.514;19.218;2022-11-20T03:45:31;1.19;93.26
68189;DHT22;55008;47.514;19.218;2022-11-20T03:48:01;1.29;93.22
68189;DHT22;55008;47.514;19.218;2022-11-20T03:50:32;1.27;93.04
68189;DHT22;55008;47.514;19.218;2022-11-20T03:53:00;1.27;93.02
68189;DHT22;55008;47.514;19.218;2022-11-20T03:55:28;1.23;93.29
68189;DHT22;55008;47.514;19.218;2022-11-20T03:57:57;1.22;93.40
68189;DHT22;55008;47.514;19.218;2022-11-20T04:00:25;1.22;93.61
68189;DHT22;55008;47.514;19.218;2022-11-20T04:02:57;1.24;93.26
68189;DHT22;55008;47.514;19.218;2022-11-20T04:05:29;1.20;93.43
68189;DHT22;55008;47.514;19.218;2022-11-20T04:07:58;1.20;93.45
68189;DHT22;55008;47.514;19.218;2022-11-20T04:10:26;1.16;93.83
68189;DHT22;55008;47.514;19.218;2022-11-20T04:12:55;1.13;93.88
68189;DHT22;55008;47.514;19.218;2022-11-20T04:15:23;1.09;94.26
68189;DHT22;55008;47.514;19.218;2022-11-20T04:17:53;1.07;94.07
68189;DHT22;55008;47.514;19.218;2022-11-20T04:20:21;1.07;94.25
68189;DHT22;55008;47.514;19.218;2022-11-20T04:22:54;1.02;94.47
68189;DHT22;55008;47.514;19.218;2022-11-20T04:25:23;0.96;94.27
68189;DHT22;55008;47.514;19.218;2022-11-20T04:27:52;0.97;94.16
68189;DHT22;55008;47.514;19.218;2022-11-20T04:30:20;0.97;94.07
68189;DHT22;55008;47.514;19.218;2022-11-20T04:32:50;0.95;93.77
68189;DHT22;55008;47.514;19.218;2022-11-20T04:35:20;0.99;93.80
68189;DHT22;55008;47.514;19.218;2022-11-20T04:37:51;0.97;93.59
68189;DHT22;55008;47.514;19.218;2022-11-20T04:40:22;1.00;93.45
68189;DHT22;55008;47.514;19.218;2022-11-20T04:42:52;0.99;93.53
68189;DHT22;55008;47.514;19.218;2022-11-20T04:45:20;1.06;93.09
68189;DHT22;55008;47.514;19.218;2022-11-20T04:47:50;1.04;93.10
68189;DHT22;55008;47.514;19.218;2022-11-20T04:50:20;1.04;93.07
68189;DHT22;55008;47.514;19.218;2022-11-20T04:52:48;1.09;92.77
68189;DHT22;55008;47.514;19.218;2022-11-20T04:55:17;1.12;92.78
68189;DHT22;55008;47.514;19.218;2022-11-20T04:57:49;1.09;93.13
68189;DHT22;55008;47.514;19.218;2022-11-20T05:00:18;1.13;93.12
68189;DHT22;55008;47.514;19.218;2022-11-20T05:02:47;1.16;93.17
68189;DHT22;55008;47.514;19.218;2022-11-20T05:05:15;1.15;92.63
68189;DHT22;55008;47.514;19.218;2022-11-20T05:07:44;1.16;92.78
68189;DHT22;55008;47.514;19.218;2022-11-20T05:10:13;1.16;92.84
68189;DHT22;55008;47.514;19.218;2022-11-20T05:12:41;1.17;92.73
68189;DHT22;55008;47.514;19.218;2022-11-20T05:15:12;1.15;92.76
68189;DHT22;55008;47.514;19.218;2022-11-20T05:17:40;1.10;93.10
68189;DHT22;55008;47.514;19.218;2022-11-20T05:20:10;1.10;93.29
68189;DHT22;55008;47.514;19.218;2022-11-20T05:22:38;1.15;92.75
68189;DHT22;55008;47.514;19.218;2022-11-20T05:25:07;1.19;92.77
68189;DHT22;55008;47.514;19.218;2022-11-20T05:27:37;1.13;92.66
68189;DHT22;55008;47.514;19.218;2022-11-20T05:30:07;1.15;92.72
68189;DHT22;55008;47.514;19.218;2022-11-20T05:32:37;1.12;92.99
68189;DHT22;55008;47.514;19.218;2022-11-20T05:35:07;1.10;93.08
68189;DHT22;55008;47.514;19.218;2022-11-20T05:37:36;1.06;93.03
68189;DHT22;55008;47.514;19.218;2022-11-20T05:40:05;1.04;93.20
68189;DHT22;55008;47.514;19.218;2022-11-20T05:42:37;1.06;93.36
68189;DHT22;55008;47.514;19.218;2022-11-20T05:45:07;1.06;93.13
68189;DHT22;55008;47.514;19.218;2022-11-20T05:47:37;1.03;93.29
68189;DHT22;55008;47.514;19.218;2022-11-20T05:50:05;1.04;93.22
68189;DHT22;55008;47.514;19.218;2022-11-20T05:52:34;1.04;92.89
68189;DHT22;55008;47.514;19.218;2022-11-20T05:55:03;1.06;92.95
68189;DHT22;55008;47.514;19.218;2022-11-20T05:57:32;1.10;92.77
68189;DHT22;55008;47.514;19.218;2022-11-20T06:00:00;1.12;92.44
68189;DHT22;55008;47.514;19.218;2022-11-20T06:02:30;1.12;93.08
68189;DHT22;55008;47.514;19.218;2022-11-20T06:05:04;1.10;92.96
68189;DHT22;55008;47.514;19.218;2022-11-20T06:07:32;1.06;92.84
68189;DHT22;55008;47.514;19.218;2022-11-20T06:10:01;1.06;93.04
68189;DHT22;55008;47.514;19.218;2022-11-20T06:12:32;1.04;93.12
68189;DHT22;55008;47.514;19.218;2022-11-20T06:15:00;1.12;93.04
68189;DHT22;55008;47.514;19.218;2022-11-20T06:17:29;1.13;93.02
68189;DHT22;55008;47.514;19.218;2022-11-20T06:19:57;1.13;93.12
68189;DHT22;55008;47.514;19.218;2022-11-20T06:22:27;1.15;93.00
68189;DHT22;55008;47.514;19.218;2022-11-20T06:24:57;1.12;93.04
68189;DHT22;55008;47.514;19.218;2022-11-20T06:27:27;1.15;93.20
68189;DHT22;55008;47.514;19.218;2022-11-20T06:29:55;1.19;93.02
68189;DHT22;55008;47.514;19.218;2022-11-20T06:32:23;1.17;92.92
68189;DHT22;55008;47.514;19.218;2022-11-20T06:34:55;1.15;92.80
68189;DHT22;55008;47.514;19.218;2022-11-20T06:37:23;1.16;92.98
68189;DHT22;55008;47.514;19.218;2022-11-20T06:39:53;1.20;92.64
68189;DHT22;55008;47.514;19.218;2022-11-20T06:42:21;1.22;93.07
68189;DHT22;55008;47.514;19.218;2022-11-20T06:44:50;1.23;93.12
68189;DHT22;55008;47.514;19.218;2022-11-20T06:47:18;1.31;92.67
68189;DHT22;55008;47.514;19.218;2022-11-20T06:49:47;1.36;92.92
68189;DHT22;55008;47.514;19.218;2022-11-20T06:52:17;1.40;92.85
68189;DHT22;55008;47.514;19.218;2022-11-20T06:54:45;1.40;92.96
68189;DHT22;55008;47.514;19.218;2022-11-20T06:57:15;1.40;92.96
68189;DHT22;55008;47.514;19.218;2022-11-20T06:59:45;1.44;92.84
68189;DHT22;55008;47.514;19.218;2022-11-20T07:02:13;1.47;93.15
68189;DHT22;55008;47.514;19.218;2022-11-20T07:04:42;1.51;92.80
68189;DHT22;55008;47.514;19.218;2022-11-20T07:07:10;1.54;92.39
68189;DHT22;55008;47.514;19.218;2022-11-20T07:09:39;1.60;92.10
68189;DHT22;55008;47.514;19.218;2022-11-20T07:12:08;1.62;92.18
68189;DHT22;55008;47.514;19.218;2022-11-20T07:14:37;1.60;91.52
68189;DHT22;55008;47.514;19.218;2022-11-20T07:17:06;1.64;91.96
68189;DHT22;55008;47.514;19.218;2022-11-20T07:19:35;1.68;91.85
68189;DHT22;55008;47.514;19.218;2022-11-20T07:22:04;1.68;91.67
68189;DHT22;55008;47.514;19.218;2022-11-20T07:24:34;1.75;91.79
68189;DHT22;55008;47.514;19.218;2022-11-20T07:27:10;1.70;91.27
68189;DHT22;55008;47.514;19.218;2022-11-20T07:29:40;1.75;91.63
68189;DHT22;55008;47.514;19.218;2022-11-20T07:32:10;1.77;91.71
68189;DHT22;55008;47.514;19.218;2022-11-20T07:34:38;1.88;91.35
68189;DHT22;55008;47.514;19.218;2022-11-20T07:37:08;1.88;92.10
68189;DHT22;55008;47.514;19.218;2022-11-20T07:39:37;1.85;91.93
68189;DHT22;55008;47.514;19.218;2022-11-20T07:42:06;1.94;92.53
68189;DHT22;55008;47.514;19.218;2022-11-20T07:44:40;1.85;91.30
68189;DHT22;55008;47.514;19.218;2022-11-20T07:47:13;1.79;91.99
68189;DHT22;55008;47.514;19.218;2022-11-20T07:49:41;1.85;91.81
68189;DHT22;55008;47.514;19.218;2022-11-20T07:52:10;1.85;92.01
68189;DHT22;55008;47.514;19.218;2022-11-20T07:54:38;1.89;92.42
68189;DHT22;55008;47.514;19.218;2022-11-20T07:57:07;1.82;91.92
68189;DHT22;55008;47.514;19.218;2022-11-20T07:59:36;1.86;92.17
68189;DHT22;55008;47.514;19.218;2022-11-20T08:02:09;1.86;91.67
68189;DHT22;55008;47.514;19.218;2022-11-20T08:04:38;1.86;91.52
68189;DHT22;55008;47.514;19.218;2022-11-20T08:07:07;1.91;92.20
68189;DHT22;55008;47.514;19.218;2022-11-20T08:09:35;1.99;91.83
68189;DHT22;55008;47.514;19.218;2022-11-20T08:12:04;2.05;92.62
68189;DHT22;55008;47.514;19.218;2022-11-20T08:14:58;2.09;92.46
68189;DHT22;55008;47.514;19.218;2022-11-20T08:17:30;2.19;92.55
68189;DHT22;55008;47.514;19.218;2022-11-20T08:20:02;2.19;91.81
68189;DHT22;55008;47.514;19.218;2022-11-20T08:22:30;2.26;92.12
68189;DHT22;55008;47.514;19.218;2022-11-20T08:24:58;2.26;91.43
68189;DHT22;55008;47.514;19.218;2022-11-20T08:27:27;2.27;92.22
68189;DHT22;55008;47.514;19.218;2022-11-20T08:29:56;2.34;92.13
68189;DHT22;55008;47.514;19.218;2022-11-20T08:32:25;2.37;91.42
68189;DHT22;55008;47.514;19.218;2022-11-20T08:35:00;2.37;90.52
68189;DHT22;55008;47.514;19.218;2022-11-20T08:37:28;2.40;91.05
68189;DHT22;55008;47.514;19.218;2022-11-20T08:39:58;2.46;91.09
68189;DHT22;55008;47.514;19.218;2022-11-20T08:42:26;2.58;91.07
68189;DHT22;55008;47.514;19.218;2022-11-20T08:44:55;2.62;89.77
68189;DHT22;55008;47.514;19.218;2022-11-20T08:47:23;2.76;90.39
68189;DHT22;55008;47.514;19.218;2022-11-20T08:50:01;2.84;89.86
68189;DHT22;55008;47.514;19.218;2022-11-20T08:52:31;2.88;91.12
68189;DHT22;55008;47.514;19.218;2022-11-20T08:55:08;3.12;90.90
68189;DHT22;55008;47.514;19.218;2022-11-20T08:57:37;3.16;89.28
68189;DHT22;55008;47.514;19.218;2022-11-20T09:00:10;3.22;90.65
68189;DHT22;55008;47.514;19.218;2022-11-20T09:02:42;3.25;88.58
68189;DHT22;55008;47.514;19.218;2022-11-20T09:05:14;3.35;89.99
68189;DHT22;55008;47.514;19.218;2022-11-20T09:07:46;3.30;89.84
68189;DHT22;55008;47.514;19.218;2022-11-20T09:10:15;3.36;90.33
68189;DHT22;55008;47.514;19.218;2022-11-20T09:12:52;3.40;89.41
68189;DHT22;55008;47.514;19.218;2022-11-20T09:15:22;3.46;89.20
68189;DHT22;55008;47.514;19.218;2022-11-20T09:17:51;3.49;88.98
68189;DHT22;55008;47.514;19.218;2022-11-20T09:20:22;3.46;89.08
68189;DHT22;55008;47.514;19.218;2022-11-20T09:22:50;3.49;89.31
68189;DHT22;55008;47.514;19.218;2022-11-20T09:25:19;3.57;88.00
68189;DHT22;55008;47.514;19.218;2022-11-20T09:27:47;3.56;88.22
68189;DHT22;55008;47.514;19.218;2022-11-20T09:30:16;3.59;87.81
68189;DHT22;55008;47.514;19.218;2022-11-20T09:32:44;3.59;89.07
68189;DHT22;55008;47.514;19.218;2022-11-20T09:35:13;3.53;87.76
68189;DHT22;55008;47.514;19.218;2022-11-20T09:37:43;3.47;88.87
68189;DHT22;55008;47.514;19.218;2022-11-20T09:40:19;3.52;88.55
68189;DHT22;55008;47.514;19.218;2022-11-20T09:42:54;3.56;87.51
68189;DHT22;55008;47.514;19.218;2022-11-20T09:45:31;3.57;87.38
68189;DHT22;55008;47.514;19.218;2022-11-20T09:48:12;3.54;86.65
68189;DHT22;55008;47.514;19.218;2022-11-20T09:50:51;3.63;87.21
68189;DHT22;55008;47.514;19.218;2022-11-20T09:53:30;3.80;87.39
68189;DHT22;55008;47.514;19.218;2022-11-20T09:56:03;3.73;86.02
68189;DHT22;55008;47.514;19.218;2022-11-20T09:58:34;3.69;86.43
68189;DHT22;55008;47.514;19.218;2022-11-20T10:01:10;3.77;86.28
68189;DHT22;55008;47.514;19.218;2022-11-20T10:03:50;3.77;85.78
68189;DHT22;55008;47.514;19.218;2022-11-20T10:06:26;3.87;86.47
68189;DHT22;55008;47.514;19.218;2022-11-20T10:09:06;3.97;87.39
68189;DHT22;55008;47.514;19.218;2022-11-20T10:11:44;4.09;86.78
68189;DHT22;55008;47.514;19.218;2022-11-20T10:14:23;4.08;85.37
68189;DHT22;55008;47.514;19.218;2022-11-20T10:17:02;4.11;86.08
68189;DHT22;55008;47.514;19.218;2022-11-20T10:19:43;4.18;85.37
68189;DHT22;55008;47.514;19.218;2022-11-20T10:22:26;4.25;85.85
68189;DHT22;55008;47.514;19.218;2022-11-20T10:25:04;4.28;85.35
68189;DHT22;55008;47.514;19.218;2022-11-20T10:27:43;4.35;85.37
68189;DHT22;55008;47.514;19.218;2022-11-20T10:30:19;4.39;85.39
68189;DHT22;55008;47.514;19.218;2022-11-20T10:32:51;4.45;84.83
68189;DHT22;55008;47.514;19.218;2022-11-20T10:35:24;4.42;83.80
68189;DHT22;55008;47.514;19.218;2022-11-20T10:37:58;4.54;83.44
68189;DHT22;55008;47.514;19.218;2022-11-20T10:40:32;4.67;84.29
68189;DHT22;55008;47.514;19.218;2022-11-20T10:43:09;4.79;84.02
68189;DHT22;55008;47.514;19.218;2022-11-20T10:45:57;4.87;83.27
68189;DHT22;55008;47.514;19.218;2022-11-20T10:48:28;4.79;82.83
68189;DHT22;55008;47.514;19.218;2022-11-20T10:51:07;4.90;83.58
68189;DHT22;55008;47.514;19.218;2022-11-20T10:53:45;4.94;82.72
68189;DHT22;55008;47.514;19.218;2022-11-20T10:56:20;5.05;83.29
68189;DHT22;55008;47.514;19.218;2022-11-20T10:59:03;5.08;83.02
68189;DHT22;55008;47.514;19.218;2022-11-20T11:01:39;5.11;82.43
68189;DHT22;55008;47.514;19.218;2022-11-20T11:04:20;5.14;83.19
68189;DHT22;55008;47.514;19.218;2022-11-20T11:06:50;5.12;83.47
68189;DHT22;55008;47.514;19.218;2022-11-20T11:09:24;5.12;83.61
68189;DHT22;55008;47.514;19.218;2022-11-20T11:11:56;5.15;82.95
68189;DHT22;55008;47.514;19.218;2022-11-20T11:14:42;5.29;83.34
68189;DHT22;55008;47.514;19.218;2022-11-20T11:17:21;5.38;82.92
68189;DHT22;55008;47.514;19.218;2022-11-20T11:20:06;5.45;83.57
68189;DHT22;55008;47.514;19.218;2022-11-20T11:22:46;5.39;82.48
68189;DHT22;55008;47.514;19.218;2022-11-20T11:25:24;5.40;82.54
68189;DHT22;55008;47.514;19.218;2022-11-20T11:27:56;5.46;83.28
68189;DHT22;55008;47.514;19.218;2022-11-20T11:30:28;5.45;83.01
68189;DHT22;55008;47.514;19.218;2022-11-20T11:33:05;5.46;82.78
68189;DHT22;55008;47.514;19.218;2022-11-20T11:35:44;5.40;82.56
68189;DHT22;55008;47.514;19.218;2022-11-20T11:38:19;5.45;82.94
68189;DHT22;55008;47.514;19.218;2022-11-20T11:40:53;5.45;82.63
68189;DHT22;55008;47.514;19.218;2022-11-20T11:43:25;5.46;83.52
68189;DHT22;55008;47.514;19.218;2022-11-20T11:46:28;5.49;82.93
68189;DHT22;55008;47.514;19.218;2022-11-20T11:48:59;5.58;83.85
68189;DHT22;55008;47.514;19.218;2022-11-20T11:51:33;5.56;82.69
68189;DHT22;55008;47.514;19.218;2022-11-20T11:54:08;5.66;83.66
68189;DHT22;55008;47.514;19.218;2022-11-20T11:56:42;5.48;82.66
68189;DHT22;55008;47.514;19.218;2022-11-20T11:59:20;5.55;83.13
68189;DHT22;55008;47.514;19.218;2022-11-20T12:01:53;5.55;82.80
68189;DHT22;55008;47.514;19.218;2022-11-20T12:04:38;5.49;82.93
68189;DHT22;55008;47.514;19.218;2022-11-20T12:07:15;5.58;83.31
68189;DHT22;55008;47.514;19.218;2022-11-20T12:10:15;5.65;83.28
68189;DHT22;55008;47.514;19.218;2022-11-20T12:12:48;5.73;83.34
68189;DHT22;55008;47.514;19.218;2022-11-20T12:15:26;5.76;83.40
68189;DHT22;55008;47.514;19.218;2022-11-20T12:17:56;5.87;83.88
68189;DHT22;55008;47.514;19.218;2022-11-20T12:20:30;5.90;83.50
68189;DHT22;55008;47.514;19.218;2022-11-20T12:23:09;5.93;83.09
68189;DHT22;55008;47.514;19.218;2022-11-20T12:25:48;5.90;82.66
68189;DHT22;55008;47.514;19.218;2022-11-20T12:28:38;5.86;82.45
68189;DHT22;55008;47.514;19.218;2022-11-20T12:31:25;5.93;82.67
68189;DHT22;55008;47.514;19.218;2022-11-20T12:34:16;5.93;82.73
68189;DHT22;55008;47.514;19.218;2022-11-20T12:36:52;5.96;82.70
68189;DHT22;55008;47.514;19.218;2022-11-20T12:39:40;5.94;82.90
68189;DHT22;55008;47.514;19.218;2022-11-20T12:42:30;5.89;82.78
68189;DHT22;55008;47.514;19.218;2022-11-20T12:45:36;5.98;82.72
68189;DHT22;55008;47.514;19.218;2022-11-20T12:48:28;6.08;82.54
68189;DHT22;55008;47.514;19.218;2022-11-20T12:51:15;6.14;83.76
68189;DHT22;55008;47.514;19.218;2022-11-20T12:53:58;6.13;82.55
68189;DHT22;55008;47.514;19.218;2022-11-20T12:56:38;6.17;82.59
68189;DHT22;55008;47.514;19.218;2022-11-20T12:59:23;6.16;82.50
68189;DHT22;55008;47.514;19.218;2022-11-20T13:02:03;6.25;82.85
68189;DHT22;55008;47.514;19.218;2022-11-20T13:04:55;6.27;83.20
68189;DHT22;55008;47.514;19.218;2022-11-20T13:07:30;6.27;82.04
68189;DHT22;55008;47.514;19.218;2022-11-20T13:09:59;6.24;81.97
68189;DHT22;55008;47.514;19.218;2022-11-20T13:12:32;6.31;82.28
68189;DHT22;55008;47.514;19.218;2022-11-20T13:15:07;6.29;81.94
68189;DHT22;55008;47.514;19.218;2022-11-20T13:17:43;6.29;82.68
68189;DHT22;55008;47.514;19.218;2022-11-20T13:20:21;6.27;83.05
68189;DHT22;55008;47.514;19.218;2022-11-20T13:22:52;6.27;83.52
68189;DHT22;55008;47.514;19.218;2022-11-20T13:25:25;6.27;82.95
68189;DHT22;55008;47.514;19.218;2022-11-20T13:27:56;6.24;83.48
68189;DHT22;55008;47.514;19.218;2022-11-20T13:30:27;6.18;83.13
68189;DHT22;55008;47.514;19.218;2022-11-20T13:32:57;6.14;83.21
68189;DHT22;55008;47.514;19.218;2022-11-20T13:35:30;6.20;83.07
68189;DHT22;55008;47.514;19.218;2022-11-20T13:38:02;6.08;82.91
68189;DHT22;55008;47.514;19.218;2022-11-20T13:40:31;5.97;82.61
68189;DHT22;55008;47.514;19.218;2022-11-20T13:43:10;5.96;83.36
68189;DHT22;55008;47.514;19.218;2022-11-20T13:45:54;5.85;83.59
68189;DHT22;55008;47.514;19.218;2022-11-20T13:48:26;5.81;84.10
68189;DHT22;55008;47.514;19.218;2022-11-20T13:51:07;5.79;84.26
68189;DHT22;55008;47.514;19.218;2022-11-20T13:53:53;5.77;84.45
68189;DHT22;55008;47.514;19.218;2022-11-20T13:56:33;5.70;84.83
68189;DHT22;55008;47.514;19.218;2022-11-20T13:59:09;5.67;84.68
68189;DHT22;55008;47.514;19.218;2022-11-20T14:01:43;5.60;85.06
68189;DHT22;55008;47.514;19.218;2022-11-20T14:04:17;5.56;85.43
68189;DHT22;55008;47.514;19.218;2022-11-20T14:06:52;5.53;85.63
68189;DHT22;55008;47.514;19.218;2022-11-20T14:09:29;5.45;85.37
68189;DHT22;55008;47.514;19.218;2022-11-20T14:12:00;5.43;85.44
68189;DHT22;55008;47.514;19.218;2022-11-20T14:14:34;5.40;85.67
68189;DHT22;55008;47.514;19.218;2022-11-20T14:17:08;5.35;85.91
68189;DHT22;55008;47.514;19.218;2022-11-20T14:19:45;5.31;86.28
68189;DHT22;55008;47.514;19.218;2022-11-20T14:22:23;5.24;86.10
68189;DHT22;55008;47.514;19.218;2022-11-20T14:25:03;5.22;86.47
68189;DHT22;55008;47.514;19.218;2022-11-20T14:27:34;5.18;86.92
68189;DHT22;55008;47.514;19.218;2022-11-20T14:30:13;5.11;87.03
68189;DHT22;55008;47.514;19.218;2022-11-20T14:32:44;5.07;87.40
68189;DHT22;55008;47.514;19.218;2022-11-20T14:35:22;5.01;87.96
68189;DHT22;55008;47.514;19.218;2022-11-20T14:37:57;4.98;88.54
68189;DHT22;55008;47.514;19.218;2022-11-20T14:40:28;4.88;88.61
68189;DHT22;55008;47.514;19.218;2022-11-20T14:43:00;4.87;88.66
68189;DHT22;55008;47.514;19.218;2022-11-20T14:45:30;4.81;89.03
68189;DHT22;55008;47.514;19.218;2022-11-20T14:47:59;4.79;89.25
68189;DHT22;55008;47.514;19.218;2022-11-20T14:50:28;4.76;89.22
68189;DHT22;55008;47.514;19.218;2022-11-20T14:52:59;4.74;89.61
68189;DHT22;55008;47.514;19.218;2022-11-20T14:55:31;4.69;89.65
68189;DHT22;55008;47.514;19.218;2022-11-20T14:58:03;4.62;90.23
68189;DHT22;55008;47.514;19.218;2022-11-20T15:00:33;4.53;90.69
68189;DHT22;55008;47.514;19.218;2022-11-20T15:03:13;4.50;90.23
68189;DHT22;55008;47.514;19.218;2022-11-20T15:05:47;4.45;90.67
68189;DHT22;55008;47.514;19.218;2022-11-20T15:08:18;4.43;91.40
68189;DHT22;55008;47.514;19.218;2022-11-20T15:10:49;4.38;91.19
68189;DHT22;55008;47.514;19.218;2022-11-20T15:13:25;4.29;91.15
68189;DHT22;55008;47.514;19.218;2022-11-20T15:15:56;4.26;91.45
68189;DHT22;55008;47.514;19.218;2022-11-20T15:18:28;4.26;91.31
68189;DHT22;55008;47.514;19.218;2022-11-20T15:21:02;4.15;91.89
68189;DHT22;55008;47.514;19.218;2022-11-20T15:23:32;4.08;91.81
68189;DHT22;55008;47.514;19.218;2022-11-20T15:26:04;4.02;92.14
68189;DHT22;55008;47.514;19.218;2022-11-20T15:28:34;3.97;92.48
68189;DHT22;55008;47.514;19.218;2022-11-20T15:31:05;3.84;92.95
68189;DHT22;55008;47.514;19.218;2022-11-20T15:33:35;3.73;93.37
68189;DHT22;55008;47.514;19.218;2022-11-20T15:36:04;3.70;93.46
68189;DHT22;55008;47.514;19.218;2022-11-20T15:38:35;3.64;93.39
68189;DHT22;55008;47.514;19.218;2022-11-20T15:41:03;3.59;93.53
68189;DHT22;55008;47.514;19.218;2022-11-20T15:43:32;3.56;93.48
68189;DHT22;55008;47.514;19.218;2022-11-20T15:46:09;3.49;93.91
68189;DHT22;55008;47.514;19.218;2022-11-20T15:48:41;3.36;94.32
68189;DHT22;55008;47.514;19.218;2022-11-20T15:51:21;3.39;94.19
68189;DHT22;55008;47.514;19.218;2022-11-20T15:53:54;3.37;94.08
68189;DHT22;55008;47.514;19.218;2022-11-20T15:56:24;3.35;94.23
68189;DHT22;55008;47.514;19.218;2022-11-20T15:58:52;3.30;94.31
68189;DHT22;55008;47.514;19.218;2022-11-20T16:01:22;3.29;94.55
68189;DHT22;55008;47.514;19.218;2022-11-20T16:03:51;3.30;94.42